Aniwa, Wisconsin
Current Conditions -  °F | °C
As of 9:15 PM on Friday 28 Nov 2014 (Local Time) from KAIG Reporting Station
Broken Clouds Broken Clouds  
Wind Chill:   Ceiling: 500
Heat Index: 13°   Visibility: 10mi
Dew Point: 12°   Wind: 7mph
Humidity: 95%   Direction: 120°ESE
Pressure: 29.83"   Gusts: NA
Location:  45.01°N, 89.21°W
Report Text: KAIG 290315Z AUTO 12006KT 10SM BKN005 M10/M11 A2983 RMK AO2 T11031109
Loading
Personal Weather Stations






























Interactive Weather Map New forecast layout! Learn more

10-Day Weather Forecast

Advertisements
Track Severe Weather on mobile